Time;durP1;ratioP1;P1;durP2;ratioP2;P2;SDS_P1;SDS_P2;PMS_P1;PMS_P2;Temp;Humidity;BMP_temperature;BMP_pressure;BME280_temperature;BME280_humidity;BME280_pressure;Samples;Min_cycle;Max_cycle;Signal;HPM_P1;HPM_P2
2022/10/25 00:02:13;;;;;;;117.53;110.93;;;;;;;;;;10059696;28;20051;-70
2022/10/25 00:07:10;;;;;;;115.78;109.63;;;;;;;;;;10066256;28;20075;-70
2022/10/25 00:12:06;;;;;;;113.88;107.90;;;;;;;;;;10061619;28;20432;-70
2022/10/25 00:17:03;;;;;;;114.43;108.22;;;;;;;;;;10077224;28;20051;-70
2022/10/25 00:21:59;;;;;;;122.05;114.72;;;;;;;;;;10078779;28;20055;-70
2022/10/25 00:26:55;;;;;;;121.32;114.40;;;;;;;;;;10056788;28;20051;-70
2022/10/25 00:31:52;;;;;;;125.75;118.43;;;;;;;;;;10062779;28;20055;-70
2022/10/25 00:36:48;;;;;;;130.20;122.75;;;;;;;;;;10058668;28;20051;-70
2022/10/25 00:41:44;;;;;;;128.80;121.18;;;;;;;;;;10049672;28;20043;-70
2022/10/25 00:46:41;;;;;;;124.70;117.70;;;;;;;;;;10056392;28;20047;-70
2022/10/25 00:51:40;;;;;;;133.32;125.20;;;;;;;;;;10064196;28;20055;-70
2022/10/25 00:56:37;;;;;;;139.13;131.25;;;;;;;;;;10054021;28;20530;-70
2022/10/25 01:01:34;;;;;;;137.40;129.57;;;;;;;;;;10058943;28;20054;-70
2022/10/25 01:06:35;;;;;;;134.57;127.03;;;;;;;;;;10064802;28;20086;-70
2022/10/25 01:11:34;;;;;;;142.05;133.38;;;;;;;;;;10062144;28;20057;-70
2022/10/25 01:16:30;;;;;;;136.20;128.48;;;;;;;;;;10068996;28;20113;-70
2022/10/25 01:21:35;;;;;;;142.02;133.93;;;;;;;;;;10058158;28;20062;-70
2022/10/25 01:26:44;;;;;;;141.05;133.23;;;;;;;;;;10046557;28;20050;-70
2022/10/25 01:31:47;;;;;;;138.88;131.50;;;;;;;;;;10057786;28;20512;-70
2022/10/25 01:36:52;;;;;;;129.50;122.63;;;;;;;;;;10052728;28;20548;-71
2022/10/25 01:41:57;;;;;;;118.97;112.45;;;;;;;;;;10070460;28;20049;-70
2022/10/25 01:46:58;;;;;;;129.95;123.10;;;;;;;;;;10054238;28;20660;-70
2022/10/25 01:51:55;;;;;;;120.53;114.20;;;;;;;;;;10046790;28;20048;-70
2022/10/25 01:56:58;;;;;;;110.20;104.13;;;;;;;;;;10066264;28;20043;-70
2022/10/25 02:01:58;;;;;;;121.78;114.97;;;;;;;;;;10062012;28;20419;-70
2022/10/25 02:07:14;;;;;;;122.97;116.13;;;;;;;;;;10059191;28;20058;-70
2022/10/25 02:12:13;;;;;;;132.90;125.47;;;;;;;;;;10048518;28;20052;-70
2022/10/25 02:17:18;;;;;;;129.20;122.18;;;;;;;;;;10046702;28;20058;-70
2022/10/25 02:22:14;;;;;;;126.45;119.25;;;;;;;;;;10066065;28;20043;-70
2022/10/25 02:27:12;;;;;;;131.73;124.43;;;;;;;;;;10062634;28;20054;-70
2022/10/25 02:32:08;;;;;;;137.07;129.02;;;;;;;;;;10064463;28;20508;-70
2022/10/25 02:37:04;;;;;;;140.60;132.45;;;;;;;;;;10055439;28;20506;-70
2022/10/25 02:42:01;;;;;;;134.00;126.40;;;;;;;;;;10066273;28;20058;-70
2022/10/25 02:46:57;;;;;;;131.07;123.38;;;;;;;;;;10062212;28;20054;-70
2022/10/25 02:51:53;;;;;;;137.32;129.20;;;;;;;;;;10062841;28;20529;-70
2022/10/25 02:56:51;;;;;;;133.73;125.82;;;;;;;;;;10059538;28;20043;-70
2022/10/25 03:01:47;;;;;;;130.48;122.65;;;;;;;;;;10072661;28;20141;-70
2022/10/25 03:06:44;;;;;;;124.53;117.38;;;;;;;;;;10066893;28;20043;-70
2022/10/25 03:11:40;;;;;;;134.15;126.13;;;;;;;;;;10070940;28;20052;-70
2022/10/25 03:16:36;;;;;;;131.30;123.70;;;;;;;;;;10061230;28;20047;-71
2022/10/25 03:21:33;;;;;;;133.43;125.60;;;;;;;;;;10073004;28;20051;-70
2022/10/25 03:26:33;;;;;;;136.02;128.00;;;;;;;;;;10066796;28;20079;-70
2022/10/25 03:31:30;;;;;;;143.95;135.85;;;;;;;;;;10066937;28;20051;-70
2022/10/25 03:36:26;;;;;;;134.23;126.38;;;;;;;;;;10064750;28;20421;-70
2022/10/25 03:41:23;;;;;;;127.85;120.40;;;;;;;;;;10067665;28;20043;-70
2022/10/25 03:46:20;;;;;;;126.50;118.93;;;;;;;;;;10065583;28;20090;-70
2022/10/25 03:51:16;;;;;;;112.15;105.45;;;;;;;;;;10052993;28;20047;-70
2022/10/25 03:56:12;;;;;;;114.70;108.03;;;;;;;;;;10056048;28;20048;-70
2022/10/25 04:01:08;;;;;;;114.95;108.47;;;;;;;;;;10067055;28;20576;-69
2022/10/25 04:06:05;;;;;;;109.18;102.50;;;;;;;;;;10056435;28;20067;-69
2022/10/25 04:11:02;;;;;;;108.07;101.65;;;;;;;;;;10069175;28;20532;-69
2022/10/25 04:15:58;;;;;;;105.78;99.70;;;;;;;;;;10060853;28;20058;-69
2022/10/25 04:20:54;;;;;;;108.55;102.18;;;;;;;;;;10067284;28;20054;-69
2022/10/25 04:25:55;;;;;;;95.82;90.10;;;;;;;;;;10063259;28;20048;-70
2022/10/25 04:30:51;;;;;;;101.97;95.93;;;;;;;;;;10063207;29;20039;-69
2022/10/25 04:35:55;;;;;;;99.25;93.40;;;;;;;;;;10066745;28;20066;-69
2022/10/25 04:40:52;;;;;;;96.63;90.68;;;;;;;;;;10068296;28;20052;-69
2022/10/25 04:45:49;;;;;;;100.60;94.25;;;;;;;;;;10050840;28;20051;-70
2022/10/25 04:50:45;;;;;;;102.22;95.57;;;;;;;;;;10067126;28;20050;-70
2022/10/25 04:55:42;;;;;;;98.53;92.07;;;;;;;;;;10063056;28;20048;-70
2022/10/25 05:00:38;;;;;;;91.13;85.35;;;;;;;;;;10069781;28;20051;-69
2022/10/25 05:05:34;;;;;;;97.45;90.95;;;;;;;;;;10065410;28;20043;-69
2022/10/25 05:10:30;;;;;;;106.45;99.95;;;;;;;;;;10064603;28;20059;-69
2022/10/25 05:15:27;;;;;;;104.88;98.38;;;;;;;;;;10060414;28;20554;-69
2022/10/25 05:20:23;;;;;;;105.13;98.90;;;;;;;;;;10071757;28;20050;-69
2022/10/25 05:25:19;;;;;;;95.80;89.78;;;;;;;;;;10068798;28;20047;-69
2022/10/25 05:30:16;;;;;;;98.78;92.72;;;;;;;;;;10068985;28;20078;-69
2022/10/25 05:35:12;;;;;;;112.90;106.18;;;;;;;;;;10074017;28;20058;-69
2022/10/25 05:40:08;;;;;;;111.07;104.43;;;;;;;;;;10103427;28;20062;-69
2022/10/25 05:45:05;;;;;;;113.13;106.22;;;;;;;;;;10057794;28;20449;-69
2022/10/25 05:50:01;;;;;;;114.45;108.22;;;;;;;;;;10073428;29;20051;-69
2022/10/25 05:54:57;;;;;;;106.50;100.30;;;;;;;;;;10072150;28;20058;-69
2022/10/25 05:59:54;;;;;;;107.28;101.18;;;;;;;;;;10072444;28;20047;-69
2022/10/25 06:04:50;;;;;;;109.25;103.00;;;;;;;;;;10062815;28;20040;-69
2022/10/25 06:09:47;;;;;;;109.40;102.88;;;;;;;;;;10074028;28;20151;-69
2022/10/25 06:14:44;;;;;;;104.43;98.50;;;;;;;;;;10056250;28;20054;-69
2022/10/25 06:19:40;;;;;;;111.45;105.05;;;;;;;;;;10061612;28;20051;-69
2022/10/25 06:24:36;;;;;;;109.15;102.55;;;;;;;;;;10063954;28;20059;-69
2022/10/25 06:29:32;;;;;;;103.68;96.95;;;;;;;;;;10070299;28;20045;-69
2022/10/25 06:34:29;;;;;;;104.53;97.82;;;;;;;;;;10065334;28;20047;-70
2022/10/25 06:39:25;;;;;;;115.63;108.40;;;;;;;;;;10062283;28;20052;-70
2022/10/25 06:44:21;;;;;;;121.22;113.35;;;;;;;;;;10065890;28;20506;-69
2022/10/25 06:49:17;;;;;;;132.50;124.20;;;;;;;;;;10061616;28;20051;-70
2022/10/25 06:54:13;;;;;;;141.55;132.35;;;;;;;;;;10060798;28;20039;-70
2022/10/25 06:59:10;;;;;;;143.55;134.05;;;;;;;;;;10105685;28;20827;-70
2022/10/25 07:04:06;;;;;;;148.00;138.68;;;;;;;;;;10061095;28;20048;-70
2022/10/25 07:09:03;;;;;;;153.68;143.75;;;;;;;;;;10062753;28;20043;-70
2022/10/25 07:14:00;;;;;;;146.02;136.70;;;;;;;;;;10064514;28;20513;-70
2022/10/25 07:18:58;;;;;;;145.05;135.82;;;;;;;;;;10063590;28;20062;-69
2022/10/25 07:23:54;;;;;;;151.70;142.07;;;;;;;;;;10064868;28;20062;-70
2022/10/25 07:28:51;;;;;;;156.82;147.43;;;;;;;;;;10064490;28;20047;-69
2022/10/25 07:33:48;;;;;;;154.40;145.50;;;;;;;;;;10100844;28;20053;-69
2022/10/25 07:38:44;;;;;;;144.25;135.82;;;;;;;;;;10084648;28;20058;-69
2022/10/25 07:43:40;;;;;;;151.27;142.38;;;;;;;;;;10071420;28;20533;-70
2022/10/25 07:48:37;;;;;;;142.60;133.93;;;;;;;;;;10068510;28;20047;-70
2022/10/25 07:53:33;;;;;;;146.27;137.80;;;;;;;;;;10070101;28;20051;-69
2022/10/25 07:58:29;;;;;;;146.90;138.02;;;;;;;;;;10059401;28;20541;-69
2022/10/25 08:03:25;;;;;;;138.40;130.23;;;;;;;;;;10071860;28;20046;-69
2022/10/25 08:08:23;;;;;;;140.40;132.32;;;;;;;;;;10066997;28;20078;-70
2022/10/25 08:13:19;;;;;;;151.65;142.95;;;;;;;;;;10067591;28;20055;-70
2022/10/25 08:18:15;;;;;;;144.60;135.98;;;;;;;;;;10068103;28;20506;-69
2022/10/25 08:23:12;;;;;;;142.93;133.77;;;;;;;;;;10089718;28;20053;-69
2022/10/25 08:28:08;;;;;;;137.25;128.68;;;;;;;;;;10093016;28;20111;-69
2022/10/25 08:33:05;;;;;;;134.85;126.30;;;;;;;;;;10062453;28;20039;-69
2022/10/25 08:38:06;;;;;;;144.68;135.77;;;;;;;;;;10069057;28;20052;-69
2022/10/25 08:43:12;;;;;;;144.85;136.15;;;;;;;;;;10060427;28;20047;-69
2022/10/25 08:48:12;;;;;;;141.70;132.93;;;;;;;;;;10064482;28;20501;-69
2022/10/25 08:53:15;;;;;;;133.63;125.78;;;;;;;;;;10071213;28;20050;-69
2022/10/25 08:58:14;;;;;;;132.18;124.55;;;;;;;;;;10072776;28;20055;-70
2022/10/25 09:03:12;;;;;;;141.18;133.32;;;;;;;;;;10065122;28;20059;-69
2022/10/25 09:08:26;;;;;;;138.88;130.43;;;;;;;;;;10068543;28;20114;-69
2022/10/25 09:13:41;;;;;;;122.35;114.90;;;;;;;;;;10069563;28;20051;-69
2022/10/25 09:18:53;;;;;;;111.32;104.95;;;;;;;;;;10055341;28;20059;-70
2022/10/25 09:23:58;;;;;;;99.00;93.20;;;;;;;;;;10100473;28;20475;-70
2022/10/25 09:29:04;;;;;;;99.00;93.47;;;;;;;;;;10075985;28;20413;-70
2022/10/25 09:34:02;;;;;;;100.00;94.30;;;;;;;;;;10066684;28;20047;-69
2022/10/25 09:39:01;;;;;;;94.80;89.03;;;;;;;;;;10071482;28;20150;-69
2022/10/25 09:44:20;;;;;;;86.65;81.72;;;;;;;;;;10067117;28;20047;-69
2022/10/25 09:49:17;;;;;;;75.97;71.40;;;;;;;;;;10058222;28;20552;-70
2022/10/25 09:54:31;;;;;;;66.50;62.47;;;;;;;;;;10064326;28;20051;-69
2022/10/25 09:59:28;;;;;;;59.50;55.70;;;;;;;;;;10062182;28;20043;-69
2022/10/25 10:04:33;;;;;;;60.00;56.15;;;;;;;;;;10062686;28;20051;-69
2022/10/25 10:09:30;;;;;;;66.88;62.25;;;;;;;;;;10067459;28;20066;-69
2022/10/25 10:14:35;;;;;;;53.13;49.17;;;;;;;;;;10070608;28;20043;-69
2022/10/25 10:19:31;;;;;;;45.10;42.13;;;;;;;;;;10057102;28;20516;-69
2022/10/25 10:24:29;;;;;;;41.13;38.15;;;;;;;;;;10058893;28;20055;-70
2022/10/25 10:29:33;;;;;;;44.88;41.47;;;;;;;;;;10063490;28;20054;-69
2022/10/25 10:34:31;;;;;;;45.28;41.58;;;;;;;;;;10056697;28;20070;-70
2022/10/25 10:39:27;;;;;;;45.03;42.00;;;;;;;;;;10064109;28;20600;-69
2022/10/25 10:44:23;;;;;;;38.63;35.90;;;;;;;;;;10069010;28;20047;-69
2022/10/25 10:49:24;;;;;;;33.83;31.52;;;;;;;;;;10109022;28;20436;-69
2022/10/25 10:54:20;;;;;;;31.95;29.23;;;;;;;;;;10068385;28;20047;-69
2022/10/25 10:59:34;;;;;;;31.05;28.63;;;;;;;;;;10063102;28;20047;-69
2022/10/25 11:04:44;;;;;;;23.20;21.23;;;;;;;;;;10062463;28;20058;-69
2022/10/25 11:09:41;;;;;;;21.45;19.60;;;;;;;;;;10064372;28;20441;-69
2022/10/25 11:14:37;;;;;;;18.52;16.80;;;;;;;;;;10070150;28;20437;-69
2022/10/25 11:20:05;;;;;;;17.70;16.17;;;;;;;;;;10067217;28;20417;-69
2022/10/25 11:25:20;;;;;;;18.00;16.45;;;;;;;;;;10096265;28;20063;-70
2022/10/25 11:30:18;;;;;;;18.45;16.88;;;;;;;;;;10101748;28;20047;-70
2022/10/25 11:35:33;;;;;;;16.35;13.18;;;;;;;;;;10073496;28;20054;-69
2022/10/25 11:40:31;;;;;;;14.93;12.02;;;;;;;;;;10070148;28;20048;-69
2022/10/25 11:45:31;;;;;;;13.32;11.88;;;;;;;;;;10069168;28;20453;-69
2022/10/25 11:50:33;;;;;;;15.15;12.27;;;;;;;;;;10068192;28;20047;-69
2022/10/25 11:55:33;;;;;;;13.93;12.43;;;;;;;;;;10070977;28;20412;-70
2022/10/25 12:00:48;;;;;;;11.73;10.63;;;;;;;;;;10074737;28;20126;-69
2022/10/25 12:05:44;;;;;;;12.85;10.50;;;;;;;;;;10068420;28;20058;-70
2022/10/25 12:10:42;;;;;;;14.43;9.15;;;;;;;;;;10068968;28;20062;-69
2022/10/25 12:15:40;;;;;;;10.50;9.60;;;;;;;;;;10065834;28;20454;-69
2022/10/25 12:20:37;;;;;;;11.25;9.60;;;;;;;;;;10073361;28;20047;-69
2022/10/25 12:25:38;;;;;;;11.30;9.32;;;;;;;;;;10070949;28;20063;-69
2022/10/25 12:30:34;;;;;;;13.68;10.05;;;;;;;;;;10070531;28;20421;-69
2022/10/25 12:35:35;;;;;;;13.82;10.05;;;;;;;;;;10065918;28;20051;-69
2022/10/25 12:40:36;;;;;;;10.20;8.43;;;;;;;;;;10066711;28;20545;-69
2022/10/25 12:45:39;;;;;;;15.30;10.45;;;;;;;;;;10066534;28;20054;-69
2022/10/25 12:50:41;;;;;;;11.90;10.10;;;;;;;;;;10064231;28;20044;-69
2022/10/25 12:55:56;;;;;;;11.68;9.55;;;;;;;;;;10064739;28;20058;-69
2022/10/25 13:01:01;;;;;;;11.80;9.20;;;;;;;;;;10067577;28;20062;-69
2022/10/25 13:06:12;;;;;;;11.10;9.02;;;;;;;;;;10063687;28;20062;-69
2022/10/25 13:11:08;;;;;;;11.48;8.82;;;;;;;;;;10063548;28;20043;-69
2022/10/25 13:16:07;;;;;;;12.77;9.00;;;;;;;;;;10066426;28;20063;-70
2022/10/25 13:21:08;;;;;;;11.98;9.23;;;;;;;;;;10069550;28;21011;-69
2022/10/25 13:26:06;;;;;;;9.45;8.45;;;;;;;;;;10061998;28;20046;-69
2022/10/25 13:31:22;;;;;;;11.75;8.55;;;;;;;;;;10060616;28;20067;-69
2022/10/25 13:36:38;;;;;;;10.98;8.90;;;;;;;;;;10067309;28;20051;-69
2022/10/25 13:41:42;;;;;;;11.55;10.32;;;;;;;;;;10055767;28;20047;-69
2022/10/25 13:46:39;;;;;;;12.77;9.23;;;;;;;;;;10063613;28;20039;-69
2022/10/25 13:51:39;;;;;;;11.27;10.18;;;;;;;;;;10066149;28;20054;-69
2022/10/25 13:56:35;;;;;;;11.48;10.38;;;;;;;;;;10086167;28;20059;-69
2022/10/25 14:01:34;;;;;;;11.98;9.50;;;;;;;;;;10098731;28;20138;-69
2022/10/25 14:06:31;;;;;;;20.45;10.38;;;;;;;;;;10062456;28;20051;-69
2022/10/25 14:11:36;;;;;;;13.25;9.88;;;;;;;;;;10063800;28;20085;-69
2022/10/25 14:16:51;;;;;;;11.05;9.65;;;;;;;;;;10065184;28;20055;-69
2022/10/25 14:21:49;;;;;;;11.82;10.68;;;;;;;;;;10053819;28;20074;-69
2022/10/25 14:26:54;;;;;;;14.35;11.48;;;;;;;;;;10063415;28;20039;-69
2022/10/25 14:31:51;;;;;;;13.95;12.55;;;;;;;;;;10055470;28;20063;-69
2022/10/25 14:36:49;;;;;;;15.75;13.73;;;;;;;;;;10053869;28;20058;-69
2022/10/25 14:41:50;;;;;;;15.30;14.00;;;;;;;;;;10064926;28;20055;-69
2022/10/25 14:46:46;;;;;;;16.85;15.25;;;;;;;;;;10069601;28;20054;-69
2022/10/25 14:51:43;;;;;;;17.13;15.48;;;;;;;;;;10066201;28;20386;-69
2022/10/25 14:56:41;;;;;;;16.33;14.77;;;;;;;;;;10094135;28;20049;-69
2022/10/25 15:01:37;;;;;;;16.38;14.88;;;;;;;;;;10102199;28;20115;-69
2022/10/25 15:06:33;;;;;;;17.05;15.48;;;;;;;;;;10072346;28;20053;-69
2022/10/25 15:11:31;;;;;;;17.50;15.90;;;;;;;;;;10074115;28;20150;-69
2022/10/25 15:16:39;;;;;;;17.60;16.05;;;;;;;;;;10067614;28;20413;-69
2022/10/25 15:21:45;;;;;;;18.17;16.95;;;;;;;;;;10064228;28;20047;-69
2022/10/25 15:26:54;;;;;;;20.75;18.95;;;;;;;;;;10072033;28;20045;-69
2022/10/25 15:31:50;;;;;;;19.70;17.95;;;;;;;;;;10056934;29;20418;-69
2022/10/25 15:36:47;;;;;;;22.58;20.80;;;;;;;;;;10074619;28;20047;-69
2022/10/25 15:41:43;;;;;;;23.48;21.65;;;;;;;;;;10065573;28;20067;-69
2022/10/25 15:46:40;;;;;;;25.27;22.95;;;;;;;;;;10063326;28;20047;-69
2022/10/25 15:51:37;;;;;;;27.67;25.15;;;;;;;;;;10073447;28;20138;-69
2022/10/25 15:56:34;;;;;;;30.98;28.75;;;;;;;;;;10072214;28;20110;-69
2022/10/25 16:01:30;;;;;;;30.45;28.45;;;;;;;;;;10066007;28;20050;-69
2022/10/25 16:06:26;;;;;;;34.92;32.42;;;;;;;;;;10060295;28;20458;-70
2022/10/25 16:11:23;;;;;;;33.53;31.13;;;;;;;;;;10051852;28;20039;-69
2022/10/25 16:16:19;;;;;;;30.60;28.52;;;;;;;;;;10069175;28;20055;-69
2022/10/25 16:21:35;;;;;;;33.97;31.65;;;;;;;;;;10060318;28;20051;-69
2022/10/25 16:26:40;;;;;;;35.08;32.50;;;;;;;;;;10067843;28;20035;-69
2022/10/25 16:31:36;;;;;;;34.78;32.08;;;;;;;;;;10063000;28;20047;-69
2022/10/25 16:36:32;;;;;;;35.75;33.38;;;;;;;;;;10070354;28;20039;-69
2022/10/25 16:41:29;;;;;;;33.20;31.00;;;;;;;;;;10086004;28;20151;-70
2022/10/25 16:46:25;;;;;;;35.47;33.17;;;;;;;;;;10093096;28;20039;-69
2022/10/25 16:51:23;;;;;;;36.60;34.20;;;;;;;;;;10075181;28;20050;-69
2022/10/25 16:56:20;;;;;;;35.78;33.35;;;;;;;;;;10062105;28;20122;-69
2022/10/25 17:01:16;;;;;;;35.28;32.78;;;;;;;;;;10069104;28;20051;-69
2022/10/25 17:06:12;;;;;;;32.60;29.88;;;;;;;;;;10054338;28;20134;-69
2022/10/25 17:11:28;;;;;;;31.58;29.13;;;;;;;;;;10068603;28;20111;-68
2022/10/25 17:16:25;;;;;;;32.13;29.63;;;;;;;;;;10062240;28;20057;-69
2022/10/25 17:21:22;;;;;;;28.70;26.60;;;;;;;;;;10060505;28;20059;-69
2022/10/25 17:26:18;;;;;;;28.15;25.92;;;;;;;;;;10056671;28;20955;-69
2022/10/25 17:31:21;;;;;;;29.27;27.13;;;;;;;;;;10276479;28;20631;-70
2022/10/25 17:36:17;;;;;;;29.92;27.67;;;;;;;;;;10230187;28;20143;-71
2022/10/25 17:41:14;;;;;;;27.45;25.20;;;;;;;;;;10169784;28;20057;-70
2022/10/25 17:46:18;;;;;;;28.30;26.52;;;;;;;;;;10185675;28;20042;-70
2022/10/25 17:51:14;;;;;;;27.27;25.40;;;;;;;;;;10155266;28;20613;-70
2022/10/25 17:56:15;;;;;;;30.27;28.08;;;;;;;;;;10157942;28;20398;-70
2022/10/25 18:01:12;;;;;;;31.10;28.92;;;;;;;;;;10172067;28;20046;-70
2022/10/25 18:06:11;;;;;;;33.03;30.35;;;;;;;;;;10162112;28;20490;-70
2022/10/25 18:11:08;;;;;;;33.95;30.90;;;;;;;;;;10171611;28;20414;-69
2022/10/25 18:16:05;;;;;;;32.38;29.83;;;;;;;;;;10180880;28;20500;-70
2022/10/25 18:21:07;;;;;;;33.37;31.17;;;;;;;;;;10159631;28;20526;-70
2022/10/25 18:26:04;;;;;;;36.55;33.60;;;;;;;;;;10150619;28;20424;-70
2022/10/25 18:31:02;;;;;;;37.58;35.13;;;;;;;;;;10169736;28;20053;-70
2022/10/25 18:36:00;;;;;;;39.88;37.17;;;;;;;;;;10164949;28;20275;-70
2022/10/25 18:40:56;;;;;;;38.97;36.42;;;;;;;;;;10174587;28;20625;-70
2022/10/25 18:45:56;;;;;;;44.22;41.40;;;;;;;;;;10162117;28;20048;-70
2022/10/25 18:50:52;;;;;;;47.40;44.10;;;;;;;;;;10140334;28;20046;-70
2022/10/25 18:55:51;;;;;;;49.58;46.50;;;;;;;;;;10133415;28;20053;-70
2022/10/25 19:00:48;;;;;;;50.72;47.65;;;;;;;;;;10127251;28;20047;-70
2022/10/25 19:05:44;;;;;;;55.58;52.38;;;;;;;;;;10155849;28;20054;-70
2022/10/25 19:10:51;;;;;;;57.75;54.17;;;;;;;;;;10137555;28;20055;-71
2022/10/25 19:15:47;;;;;;;62.42;58.95;;;;;;;;;;10134282;28;20579;-70
2022/10/25 19:20:44;;;;;;;60.95;57.40;;;;;;;;;;10168998;28;20076;-70
2022/10/25 19:25:41;;;;;;;66.22;62.53;;;;;;;;;;10142565;28;20065;-70
2022/10/25 19:30:39;;;;;;;74.72;70.60;;;;;;;;;;10122005;28;20050;-70
2022/10/25 19:35:35;;;;;;;72.85;68.70;;;;;;;;;;10127766;28;20047;-71
2022/10/25 19:40:31;;;;;;;79.00;74.40;;;;;;;;;;10116455;28;20050;-70
2022/10/25 19:45:27;;;;;;;82.47;77.63;;;;;;;;;;10146114;28;20053;-70
2022/10/25 19:50:24;;;;;;;84.00;79.55;;;;;;;;;;10161898;28;20492;-70
2022/10/25 19:55:20;;;;;;;83.43;78.90;;;;;;;;;;10145349;28;20053;-70
2022/10/25 20:00:16;;;;;;;92.85;87.93;;;;;;;;;;10141418;28;20043;-69
2022/10/25 20:05:13;;;;;;;101.13;95.90;;;;;;;;;;10105149;28;20051;-71
2022/10/25 20:10:09;;;;;;;101.30;95.90;;;;;;;;;;10133327;28;20576;-69
2022/10/25 20:15:06;;;;;;;101.18;95.70;;;;;;;;;;10142655;28;20048;-70
2022/10/25 20:20:02;;;;;;;104.68;98.85;;;;;;;;;;10149266;28;20045;-71
2022/10/25 20:24:58;;;;;;;105.18;99.38;;;;;;;;;;10161180;28;20065;-70
2022/10/25 20:29:55;;;;;;;116.85;110.90;;;;;;;;;;10151831;28;20510;-70
2022/10/25 20:34:51;;;;;;;115.93;110.00;;;;;;;;;;10132680;28;20685;-70
2022/10/25 20:39:47;;;;;;;114.88;108.95;;;;;;;;;;10123898;28;20069;-70
2022/10/25 20:44:43;;;;;;;116.40;110.38;;;;;;;;;;10118976;28;20061;-70
2022/10/25 20:49:40;;;;;;;112.95;106.88;;;;;;;;;;10152040;28;20055;-70
2022/10/25 20:54:36;;;;;;;113.20;107.32;;;;;;;;;;10147789;28;20512;-70
2022/10/25 20:59:32;;;;;;;117.93;112.05;;;;;;;;;;10154131;28;20136;-70
2022/10/25 21:04:28;;;;;;;124.10;117.20;;;;;;;;;;10160871;28;20041;-70
2022/10/25 21:09:45;;;;;;;125.70;118.47;;;;;;;;;;10160365;28;20049;-70
2022/10/25 21:14:44;;;;;;;132.82;125.80;;;;;;;;;;10154533;28;20050;-70
2022/10/25 21:19:41;;;;;;;134.85;127.93;;;;;;;;;;10173966;28;20060;-70
2022/10/25 21:24:37;;;;;;;137.73;130.38;;;;;;;;;;10140780;28;20050;-70
2022/10/25 21:29:33;;;;;;;148.30;140.27;;;;;;;;;;10146104;28;20039;-70
2022/10/25 21:34:29;;;;;;;141.75;134.18;;;;;;;;;;10146757;28;20042;-70
2022/10/25 21:39:25;;;;;;;150.68;142.95;;;;;;;;;;10147819;28;20046;-70
2022/10/25 21:44:22;;;;;;;147.05;139.25;;;;;;;;;;10147999;28;20047;-70
2022/10/25 21:49:18;;;;;;;150.90;143.27;;;;;;;;;;10158150;28;20045;-69
2022/10/25 21:54:14;;;;;;;145.02;137.63;;;;;;;;;;10161120;28;20038;-71
2022/10/25 21:59:11;;;;;;;137.52;130.20;;;;;;;;;;10159145;28;20045;-70
2022/10/25 22:04:07;;;;;;;136.65;129.63;;;;;;;;;;10168419;28;20060;-70
2022/10/25 22:09:03;;;;;;;140.05;132.75;;;;;;;;;;10158220;28;20042;-70
2022/10/25 22:14:01;;;;;;;133.05;126.10;;;;;;;;;;10153632;28;20042;-70
2022/10/25 22:18:59;;;;;;;138.18;131.18;;;;;;;;;;10150747;28;20042;-70
2022/10/25 22:23:55;;;;;;;147.05;139.65;;;;;;;;;;10152241;28;20138;-70
2022/10/25 22:28:52;;;;;;;142.40;135.23;;;;;;;;;;10155178;28;20492;-70
2022/10/25 22:33:53;;;;;;;144.68;137.13;;;;;;;;;;10152447;28;20043;-70
2022/10/25 22:38:49;;;;;;;147.35;139.93;;;;;;;;;;10162919;28;20061;-69
2022/10/25 22:43:46;;;;;;;147.05;139.15;;;;;;;;;;10173252;28;20046;-70
2022/10/25 22:48:43;;;;;;;144.82;137.32;;;;;;;;;;10156003;28;20039;-70
2022/10/25 22:53:40;;;;;;;148.07;140.20;;;;;;;;;;10161835;28;20038;-70
2022/10/25 22:58:37;;;;;;;149.27;140.77;;;;;;;;;;10150186;28;20053;-70
2022/10/25 23:03:34;;;;;;;152.75;144.70;;;;;;;;;;10175588;28;20082;-70
2022/10/25 23:08:30;;;;;;;152.18;143.80;;;;;;;;;;10174281;28;20134;-70
2022/10/25 23:13:27;;;;;;;150.20;142.15;;;;;;;;;;10156411;28;20505;-70
2022/10/25 23:18:24;;;;;;;149.18;141.38;;;;;;;;;;10157152;28;20046;-70
2022/10/25 23:23:20;;;;;;;146.98;139.30;;;;;;;;;;10163598;28;20537;-70
2022/10/25 23:28:17;;;;;;;148.27;140.40;;;;;;;;;;10150740;28;20043;-70
2022/10/25 23:33:14;;;;;;;151.82;143.40;;;;;;;;;;10153966;28;20049;-70
2022/10/25 23:38:11;;;;;;;151.45;143.40;;;;;;;;;;10156602;28;20431;-70
2022/10/25 23:43:07;;;;;;;148.52;140.48;;;;;;;;;;10159114;28;20049;-70
2022/10/25 23:48:03;;;;;;;151.57;143.45;;;;;;;;;;10151011;28;20060;-70
2022/10/25 23:53:00;;;;;;;151.85;143.50;;;;;;;;;;10156490;28;20053;-70
2022/10/25 23:57:56;;;;;;;148.27;140.13;;;;;;;;;;10151917;28;20065;-70
